Hanapepe, Hawaii
Current Conditions -  °F | °C
As of 12:56 PM on Saturday 20 Dec 2014 (Local Time) from PHBK Reporting Station
Clear Clear  
Wind Chill: 78°   Ceiling: Unl
Heat Index: 80°   Visibility: 10mi
Dew Point: 66°   Wind: 6mph
Humidity: 66%   Direction: 280°W
Pressure: 30.01"   Gusts: NA
Location:  21.9°N, 159.59°W
Report Text: PHBK 202256Z AUTO 28005KT 10SM CLR 26/19 A3001 RMK AO2 SLP163 T02560189
Loading
Personal Weather Stations






























Interactive Weather Map New forecast layout! Learn more

10-Day Weather Forecast

Advertisements
Track Severe Weather on mobile